Weather at Southern Illinois Airport

Public forecast

Using degrees Fahrenheit for public forecast. Weather courtesy of forecast.io.

Current aviation weather report (METAR) for Southern Illinois Airport

Retrieved 2021/10/23 04:26 UTC (0 seconds ago):

KMDH 230426Z AUTO 00000KT 3SM BR FEW003 06/06 A3005 RMK AO2 T00560056

Closest aviation forecast (TAF) to Southern Illinois Airport

Closest forecast is Cape Girardeau Regional Airport, 36.5 nm (67.6 km) SSW. Retrieved 2021-10-23 00:22 UTC (4 hours ago):

TAF KCGI 222320Z 2300/2324 00000KT P6SM SKC FM231200 00000KT P6SM VCSH BKN080 FM232000 15006KT P6SM BKN050